Time;durP1;ratioP1;P1;durP2;ratioP2;P2;SDS_P1;SDS_P2;PMS_P1;PMS_P2;Temp;Humidity;BMP_temperature;BMP_pressure;BME280_temperature;BME280_humidity;BME280_pressure;Samples;Min_cycle;Max_cycle;Signal;HPM_P1;HPM_P2
2023/02/22 00:03:57;;;;;;;64.35;42.20;;;;;;;;;;10020555;28;20073;-61
2023/02/22 00:08:51;;;;;;;57.50;39.42;;;;;;;;;;10023537;28;20049;-61
2023/02/22 00:13:45;;;;;;;57.25;41.83;;;;;;;;;;10026861;28;20038;-61
2023/02/22 00:18:38;;;;;;;63.13;40.35;;;;;;;;;;10027027;28;20132;-61
2023/02/22 00:23:32;;;;;;;59.38;38.97;;;;;;;;;;10026075;28;20077;-61
2023/02/22 00:28:26;;;;;;;58.22;39.95;;;;;;;;;;10026789;28;20056;-61
2023/02/22 00:33:19;;;;;;;59.13;42.25;;;;;;;;;;10024824;28;20042;-61
2023/02/22 00:38:15;;;;;;;61.75;41.13;;;;;;;;;;10026052;28;20069;-61
2023/02/22 00:43:08;;;;;;;65.78;42.58;;;;;;;;;;10024945;28;20495;-61
2023/02/22 00:48:01;;;;;;;67.65;43.65;;;;;;;;;;10025940;28;20084;-61
2023/02/22 00:52:56;;;;;;;71.70;46.35;;;;;;;;;;10024756;28;20058;-62
2023/02/22 00:57:51;;;;;;;72.15;48.67;;;;;;;;;;10027084;28;20050;-62
2023/02/22 01:02:43;;;;;;;77.53;48.80;;;;;;;;;;10037329;28;20572;-62
2023/02/22 01:07:39;;;;;;;69.75;47.80;;;;;;;;;;10038708;28;20087;-61
2023/02/22 01:12:32;;;;;;;74.18;47.70;;;;;;;;;;10038513;28;20414;-61
2023/02/22 01:17:26;;;;;;;68.18;46.67;;;;;;;;;;10038912;28;20100;-61
2023/02/22 01:22:20;;;;;;;80.72;47.22;;;;;;;;;;10038388;28;20041;-61
2023/02/22 01:27:13;;;;;;;72.82;47.13;;;;;;;;;;10038241;28;20038;-61
2023/02/22 01:32:07;;;;;;;75.63;46.60;;;;;;;;;;10036128;28;20050;-61
2023/02/22 01:37:01;;;;;;;73.28;48.72;;;;;;;;;;10037615;28;20053;-61
2023/02/22 01:41:56;;;;;;;71.82;46.83;;;;;;;;;;10036225;28;20050;-61
2023/02/22 01:46:49;;;;;;;69.57;45.92;;;;;;;;;;10038369;28;20124;-61
2023/02/22 01:51:48;;;;;;;68.82;45.65;;;;;;;;;;10036758;28;20077;-61
2023/02/22 01:57:05;;;;;;;71.30;48.45;;;;;;;;;;10035433;28;20108;-61
2023/02/22 02:01:59;;;;;;;77.93;47.78;;;;;;;;;;10033474;28;20140;-61
2023/02/22 02:06:54;;;;;;;76.63;49.33;;;;;;;;;;10035922;28;20050;-61
2023/02/22 02:11:52;;;;;;;72.68;49.92;;;;;;;;;;10030455;28;20193;-61
2023/02/22 02:16:48;;;;;;;85.22;52.40;;;;;;;;;;10029449;28;20140;-61
2023/02/22 02:21:59;;;;;;;83.95;54.47;;;;;;;;;;10013811;28;20077;-61
2023/02/22 02:26:54;;;;;;;91.18;59.85;;;;;;;;;;10024233;28;20050;-61
2023/02/22 02:32:28;;;;;;;88.72;58.45;;;;;;;;;;10026156;28;20049;-61
2023/02/22 02:37:52;;;;;;;104.70;62.10;;;;;;;;;;9984953;28;20074;-61
2023/02/22 02:43:10;;;;;;;86.72;56.40;;;;;;;;;;10030888;28;20053;-61
2023/02/22 02:48:06;;;;;;;96.10;59.67;;;;;;;;;;10028402;28;20062;-61
2023/02/22 02:53:04;;;;;;;86.38;60.15;;;;;;;;;;10027794;28;20081;-61
2023/02/22 02:57:59;;;;;;;93.45;59.58;;;;;;;;;;10028580;28;20046;-61
2023/02/22 03:03:06;;;;;;;100.07;59.28;;;;;;;;;;10029140;28;20054;-61
2023/02/22 03:08:07;;;;;;;87.70;58.05;;;;;;;;;;10027954;28;20053;-61
2023/02/22 03:13:10;;;;;;;86.32;57.90;;;;;;;;;;10028321;28;20065;-61
2023/02/22 03:18:08;;;;;;;93.78;58.55;;;;;;;;;;10026788;28;20104;-61
2023/02/22 03:23:06;;;;;;;93.32;58.05;;;;;;;;;;10006600;28;20466;-61
2023/02/22 03:28:03;;;;;;;89.97;57.67;;;;;;;;;;10010877;28;20100;-61
2023/02/22 03:33:07;;;;;;;93.10;58.75;;;;;;;;;;10027252;28;20296;-61
2023/02/22 03:38:03;;;;;;;88.20;57.30;;;;;;;;;;10026296;28;20057;-61
2023/02/22 03:43:04;;;;;;;93.05;62.75;;;;;;;;;;10009664;28;20046;-61
2023/02/22 03:48:13;;;;;;;92.47;61.80;;;;;;;;;;10026481;28;20165;-61
2023/02/22 03:53:07;;;;;;;88.25;59.67;;;;;;;;;;10018613;28;20055;-61
2023/02/22 03:58:08;;;;;;;97.50;62.55;;;;;;;;;;10024772;28;20099;-61
2023/02/22 04:03:02;;;;;;;95.55;62.55;;;;;;;;;;10009072;28;20050;-61
2023/02/22 04:07:57;;;;;;;98.90;62.97;;;;;;;;;;10026274;28;20569;-61
2023/02/22 04:12:51;;;;;;;98.05;63.00;;;;;;;;;;10024980;28;20671;-61
2023/02/22 04:17:45;;;;;;;101.68;65.30;;;;;;;;;;10024135;28;20116;-61
2023/02/22 04:22:40;;;;;;;103.32;68.22;;;;;;;;;;10022085;28;20415;-61
2023/02/22 04:27:33;;;;;;;105.00;70.88;;;;;;;;;;10025210;28;20045;-61
2023/02/22 04:32:27;;;;;;;91.88;59.92;;;;;;;;;;10023977;28;20045;-61
2023/02/22 04:37:21;;;;;;;101.57;66.35;;;;;;;;;;10024968;28;20038;-61
2023/02/22 04:42:14;;;;;;;94.13;58.35;;;;;;;;;;10001001;28;20084;-61
2023/02/22 04:47:08;;;;;;;90.55;59.28;;;;;;;;;;10021629;28;20080;-61
2023/02/22 04:52:01;;;;;;;99.30;61.25;;;;;;;;;;10024369;28;20510;-61
2023/02/22 04:57:00;;;;;;;101.60;64.88;;;;;;;;;;10021632;28;20088;-61
2023/02/22 05:01:54;;;;;;;100.45;61.45;;;;;;;;;;10017391;28;20054;-60
2023/02/22 05:06:47;;;;;;;89.78;59.53;;;;;;;;;;10026224;28;20042;-61
2023/02/22 05:11:42;;;;;;;92.03;60.08;;;;;;;;;;10024854;28;20058;-61
2023/02/22 05:16:35;;;;;;;98.80;64.38;;;;;;;;;;10025008;28;20112;-60
2023/02/22 05:21:28;;;;;;;99.88;61.97;;;;;;;;;;10025681;28;20054;-61
2023/02/22 05:26:21;;;;;;;94.10;64.03;;;;;;;;;;10025353;28;20042;-61
2023/02/22 05:31:16;;;;;;;93.45;59.70;;;;;;;;;;10025423;28;20053;-61
2023/02/22 05:36:09;;;;;;;95.00;60.53;;;;;;;;;;10018354;28;20172;-61
2023/02/22 05:41:04;;;;;;;93.22;62.88;;;;;;;;;;10012635;28;20047;-60
2023/02/22 05:45:58;;;;;;;89.47;60.40;;;;;;;;;;10006491;28;20053;-60
2023/02/22 05:50:52;;;;;;;93.25;62.20;;;;;;;;;;10021499;28;20114;-60
2023/02/22 05:55:44;;;;;;;89.75;59.97;;;;;;;;;;10016152;28;20479;-60
2023/02/22 06:00:38;;;;;;;97.22;63.58;;;;;;;;;;10012118;28;20049;-60
2023/02/22 06:05:32;;;;;;;98.32;62.55;;;;;;;;;;10018851;28;20050;-63
2023/02/22 06:10:26;;;;;;;98.30;63.22;;;;;;;;;;10009064;28;20050;-61
2023/02/22 06:15:22;;;;;;;92.95;60.00;;;;;;;;;;10022784;28;21082;-62
2023/02/22 06:20:19;;;;;;;89.95;61.33;;;;;;;;;;10023034;28;21573;-61
2023/02/22 06:25:15;;;;;;;90.75;60.38;;;;;;;;;;10006350;28;20420;-62
2023/02/22 06:30:11;;;;;;;96.75;61.83;;;;;;;;;;10008968;28;20050;-60
2023/02/22 06:35:05;;;;;;;99.20;61.47;;;;;;;;;;10027782;28;20509;-63
2023/02/22 06:39:58;;;;;;;101.93;63.65;;;;;;;;;;10024758;28;20576;-62
2023/02/22 06:44:56;;;;;;;99.93;61.65;;;;;;;;;;10029636;28;20049;-62
2023/02/22 06:49:54;;;;;;;97.40;62.00;;;;;;;;;;10029258;28;20140;-63
2023/02/22 06:54:48;;;;;;;98.60;60.63;;;;;;;;;;10023197;28;20572;-63
2023/02/22 06:59:42;;;;;;;96.93;59.42;;;;;;;;;;10027896;28;20486;-62
2023/02/22 07:04:36;;;;;;;100.38;63.60;;;;;;;;;;10015200;28;20053;-62
2023/02/22 07:09:29;;;;;;;99.30;62.88;;;;;;;;;;10028233;28;20049;-62
2023/02/22 07:14:22;;;;;;;96.82;63.00;;;;;;;;;;10028539;28;20068;-63
2023/02/22 07:19:16;;;;;;;93.20;61.00;;;;;;;;;;10012878;28;20499;-62
2023/02/22 07:24:09;;;;;;;83.50;58.25;;;;;;;;;;10020600;28;20384;-62
2023/02/22 07:29:03;;;;;;;89.00;58.35;;;;;;;;;;10024034;28;20041;-63
2023/02/22 07:33:56;;;;;;;93.82;58.55;;;;;;;;;;10027658;28;20446;-63
2023/02/22 07:38:49;;;;;;;94.70;61.13;;;;;;;;;;10028408;28;20053;-62
2023/02/22 07:43:42;;;;;;;94.43;58.50;;;;;;;;;;10015692;28;20048;-63
2023/02/22 07:48:36;;;;;;;103.38;63.63;;;;;;;;;;10024984;28;20052;-63
2023/02/22 07:53:32;;;;;;;91.38;61.75;;;;;;;;;;10023432;28;20042;-63
2023/02/22 07:58:29;;;;;;;86.38;56.85;;;;;;;;;;10025719;28;20046;-62
2023/02/22 08:03:24;;;;;;;95.05;64.13;;;;;;;;;;10022359;28;20046;-63
2023/02/22 08:08:18;;;;;;;87.82;57.53;;;;;;;;;;10026147;28;20506;-63
2023/02/22 08:13:11;;;;;;;87.88;58.03;;;;;;;;;;10026856;28;20423;-63
2023/02/22 08:18:09;;;;;;;81.07;56.30;;;;;;;;;;10026990;28;20570;-63
2023/02/22 08:23:03;;;;;;;74.05;50.85;;;;;;;;;;10026946;28;20054;-63
2023/02/22 08:28:01;;;;;;;92.57;52.75;;;;;;;;;;10025369;28;20513;-63
2023/02/22 08:32:55;;;;;;;67.70;43.83;;;;;;;;;;10025662;28;20125;-63
2023/02/22 08:37:51;;;;;;;63.85;45.33;;;;;;;;;;10025639;28;20351;-63
2023/02/22 08:42:44;;;;;;;70.32;47.60;;;;;;;;;;10025617;28;20053;-63
2023/02/22 08:47:37;;;;;;;71.25;48.97;;;;;;;;;;10018647;28;20518;-63
2023/02/22 08:52:31;;;;;;;79.65;50.50;;;;;;;;;;10014282;28;20049;-63
2023/02/22 08:57:25;;;;;;;74.10;50.63;;;;;;;;;;10020755;28;20541;-63
2023/02/22 09:02:21;;;;;;;80.78;52.20;;;;;;;;;;10025533;28;20124;-63
2023/02/22 09:07:14;;;;;;;75.15;49.92;;;;;;;;;;10009480;28;20084;-63
2023/02/22 09:12:08;;;;;;;67.15;47.05;;;;;;;;;;10025694;28;20050;-63
2023/02/22 09:17:02;;;;;;;60.35;43.58;;;;;;;;;;10025481;28;20465;-63
2023/02/22 09:21:59;;;;;;;60.50;41.00;;;;;;;;;;10021233;28;20054;-63
2023/02/22 09:26:55;;;;;;;63.28;43.72;;;;;;;;;;10032713;28;20045;-63
2023/02/22 09:31:50;;;;;;;65.63;47.15;;;;;;;;;;10021200;28;20519;-63
2023/02/22 09:36:45;;;;;;;70.60;48.42;;;;;;;;;;10033289;28;20088;-63
2023/02/22 09:41:44;;;;;;;76.53;49.50;;;;;;;;;;10031856;28;20120;-63
2023/02/22 09:46:40;;;;;;;80.00;51.95;;;;;;;;;;10030620;28;20041;-63
2023/02/22 09:52:04;;;;;;;82.22;54.35;;;;;;;;;;10030966;28;20074;-63
2023/02/22 09:57:00;;;;;;;81.10;56.88;;;;;;;;;;10014747;28;20050;-62
2023/02/22 10:01:58;;;;;;;84.75;58.10;;;;;;;;;;10030558;28;20421;-63
2023/02/22 10:07:17;;;;;;;86.55;58.10;;;;;;;;;;10028286;28;20054;-64
2023/02/22 10:12:30;;;;;;;95.57;60.78;;;;;;;;;;10017345;28;20517;-62
2023/02/22 10:17:38;;;;;;;93.53;61.85;;;;;;;;;;10018210;28;20137;-62
2023/02/22 10:22:51;;;;;;;98.75;61.85;;;;;;;;;;10022726;28;20073;-61
2023/02/22 10:28:05;;;;;;;92.32;63.50;;;;;;;;;;10030604;28;20144;-61
2023/02/22 10:33:08;;;;;;;85.53;59.60;;;;;;;;;;10025132;28;20081;-62
2023/02/22 10:38:15;;;;;;;93.88;59.80;;;;;;;;;;10029265;28;20042;-61
2023/02/22 10:43:10;;;;;;;89.53;59.75;;;;;;;;;;10024802;28;20049;-61
2023/02/22 10:48:07;;;;;;;95.03;60.30;;;;;;;;;;10030078;28;20081;-61
2023/02/22 10:53:00;;;;;;;87.03;59.22;;;;;;;;;;10028863;28;20082;-62
2023/02/22 10:58:01;;;;;;;86.85;58.58;;;;;;;;;;10029261;28;20112;-61
2023/02/22 11:03:00;;;;;;;87.70;60.50;;;;;;;;;;10027312;28;20129;-62
2023/02/22 11:08:15;;;;;;;85.15;58.38;;;;;;;;;;10029860;28;20076;-62
2023/02/22 11:13:30;;;;;;;86.28;55.58;;;;;;;;;;10028599;28;20414;-62
2023/02/22 11:18:26;;;;;;;80.82;58.22;;;;;;;;;;10017751;28;20085;-61
2023/02/22 11:23:22;;;;;;;83.88;56.38;;;;;;;;;;10011656;28;20081;-61
2023/02/22 11:28:29;;;;;;;89.90;59.40;;;;;;;;;;10028578;28;20073;-61
2023/02/22 11:33:28;;;;;;;82.57;57.10;;;;;;;;;;10026481;28;20068;-61
2023/02/22 11:38:25;;;;;;;87.50;61.03;;;;;;;;;;10025446;28;20053;-61
2023/02/22 11:43:19;;;;;;;90.05;60.55;;;;;;;;;;10027678;28;20133;-61
2023/02/22 11:48:18;;;;;;;83.80;59.30;;;;;;;;;;10025640;28;20578;-61
2023/02/22 11:53:30;;;;;;;77.00;54.08;;;;;;;;;;10025446;28;20479;-61
2023/02/22 11:58:45;;;;;;;79.78;54.75;;;;;;;;;;10017236;28;20054;-61
2023/02/22 12:04:09;;;;;;;77.45;55.28;;;;;;;;;;10026891;28;20060;-61
2023/02/22 12:09:07;;;;;;;77.97;55.30;;;;;;;;;;10016482;28;20046;-61
2023/02/22 12:14:24;;;;;;;84.03;57.03;;;;;;;;;;10013868;28;20088;-61
2023/02/22 12:19:24;;;;;;;78.15;54.78;;;;;;;;;;10013479;28;20074;-60
2023/02/22 12:24:21;;;;;;;84.85;59.72;;;;;;;;;;10024992;28;20049;-60
2023/02/22 12:29:30;;;;;;;83.47;58.15;;;;;;;;;;10026733;28;20132;-61
2023/02/22 12:34:37;;;;;;;82.65;56.50;;;;;;;;;;10024251;28;20096;-61
2023/02/22 12:39:52;;;;;;;83.05;56.10;;;;;;;;;;10024388;28;20049;-61
2023/02/22 12:44:52;;;;;;;82.22;53.05;;;;;;;;;;10012915;28;20128;-60
2023/02/22 12:50:01;;;;;;;80.47;59.38;;;;;;;;;;10004680;28;20054;-61
2023/02/22 12:55:10;;;;;;;77.30;56.93;;;;;;;;;;10022501;28;20049;-60
2023/02/22 13:00:10;;;;;;;92.93;61.23;;;;;;;;;;10009952;28;20049;-60
2023/02/22 13:05:03;;;;;;;83.88;59.45;;;;;;;;;;10007603;28;20467;-61
2023/02/22 13:10:29;;;;;;;85.65;59.28;;;;;;;;;;10025632;28;20550;-60
2023/02/22 13:15:31;;;;;;;81.18;58.70;;;;;;;;;;10016364;28;20049;-61
2023/02/22 13:20:29;;;;;;;83.50;58.80;;;;;;;;;;10022561;28;20045;-61
2023/02/22 13:25:41;;;;;;;83.32;58.05;;;;;;;;;;10019244;28;20050;-61
2023/02/22 13:30:46;;;;;;;97.45;60.05;;;;;;;;;;10004099;28;20068;-60
2023/02/22 13:35:48;;;;;;;86.75;59.38;;;;;;;;;;10009524;28;20562;-61
2023/02/22 13:41:26;;;;;;;85.13;59.38;;;;;;;;;;10024040;28;20049;-61
2023/02/22 13:46:53;;;;;;;80.88;58.03;;;;;;;;;;10024548;28;20108;-61
2023/02/22 13:51:59;;;;;;;87.30;60.63;;;;;;;;;;10013721;28;20045;-61
2023/02/22 13:56:53;;;;;;;86.28;56.97;;;;;;;;;;10022785;28;20053;-62
2023/02/22 14:01:48;;;;;;;85.07;55.75;;;;;;;;;;10023010;28;20064;-61
2023/02/22 14:06:42;;;;;;;73.18;51.42;;;;;;;;;;10026950;28;20065;-61
2023/02/22 14:11:56;;;;;;;73.38;53.53;;;;;;;;;;10026077;28;20093;-62
2023/02/22 14:17:20;;;;;;;79.05;53.65;;;;;;;;;;10017056;28;20050;-60
2023/02/22 14:22:14;;;;;;;79.32;52.95;;;;;;;;;;10013791;28;20407;-61
2023/02/22 14:27:06;;;;;;;76.43;54.60;;;;;;;;;;10017340;28;20053;-62
2023/02/22 14:32:09;;;;;;;79.95;54.58;;;;;;;;;;10030046;28;20133;-61
2023/02/22 14:37:11;;;;;;;80.13;56.55;;;;;;;;;;10020841;28;20046;-62
2023/02/22 14:42:13;;;;;;;76.85;54.45;;;;;;;;;;10029297;28;20069;-61
2023/02/22 14:47:09;;;;;;;77.53;53.92;;;;;;;;;;10030578;28;20042;-61
2023/02/22 14:52:10;;;;;;;79.82;50.72;;;;;;;;;;10029992;28;20137;-62
2023/02/22 14:57:13;;;;;;;69.60;48.00;;;;;;;;;;10028231;28;20148;-61
2023/02/22 15:02:13;;;;;;;75.25;49.70;;;;;;;;;;10024974;28;20054;-62
2023/02/22 15:07:26;;;;;;;67.75;47.28;;;;;;;;;;10013202;28;20503;-62
2023/02/22 15:12:30;;;;;;;72.35;47.10;;;;;;;;;;10018475;28;20457;-61
2023/02/22 15:17:24;;;;;;;66.82;46.75;;;;;;;;;;10027844;28;20360;-62
2023/02/22 15:22:23;;;;;;;69.05;46.05;;;;;;;;;;10028764;28;20443;-61
2023/02/22 15:27:18;;;;;;;74.95;49.95;;;;;;;;;;10022334;28;20120;-61
2023/02/22 15:32:32;;;;;;;77.07;48.55;;;;;;;;;;10019580;28;20458;-62
2023/02/22 15:37:27;;;;;;;84.85;49.42;;;;;;;;;;10026238;28;20085;-61
2023/02/22 15:42:21;;;;;;;69.88;49.10;;;;;;;;;;10015398;28;20042;-61
2023/02/22 15:47:20;;;;;;;71.75;48.22;;;;;;;;;;10018914;28;20466;-60
2023/02/22 15:52:19;;;;;;;68.95;47.97;;;;;;;;;;10014267;28;20042;-61
2023/02/22 15:57:14;;;;;;;82.30;50.28;;;;;;;;;;10014978;28;20416;-60
2023/02/22 16:02:20;;;;;;;74.57;49.80;;;;;;;;;;9999316;28;20141;-61
2023/02/22 16:07:20;;;;;;;78.10;52.33;;;;;;;;;;10003597;28;20093;-61
2023/02/22 16:12:18;;;;;;;77.13;52.67;;;;;;;;;;10003383;28;20495;-61
2023/02/22 16:17:23;;;;;;;82.63;53.80;;;;;;;;;;10020399;28;20079;-62
2023/02/22 16:22:35;;;;;;;84.65;51.35;;;;;;;;;;10021105;28;20112;-60
2023/02/22 16:27:28;;;;;;;78.15;49.47;;;;;;;;;;10019797;28;20060;-61
2023/02/22 16:32:21;;;;;;;77.10;50.13;;;;;;;;;;10020985;28;20422;-61
2023/02/22 16:37:21;;;;;;;82.90;52.53;;;;;;;;;;10022178;28;20087;-61
2023/02/22 16:42:19;;;;;;;87.97;53.75;;;;;;;;;;10023458;28;20089;-61
2023/02/22 16:47:13;;;;;;;91.07;56.88;;;;;;;;;;10011539;28;20089;-61
2023/02/22 16:52:06;;;;;;;96.15;55.60;;;;;;;;;;10008087;28;20049;-62
2023/02/22 16:57:00;;;;;;;87.50;55.00;;;;;;;;;;10016937;28;20074;-61
2023/02/22 17:01:57;;;;;;;83.75;55.05;;;;;;;;;;10003495;28;20052;-61
2023/02/22 17:06:50;;;;;;;84.53;55.53;;;;;;;;;;10016655;28;20111;-60
2023/02/22 17:11:44;;;;;;;92.68;64.15;;;;;;;;;;10008219;28;20422;-60
2023/02/22 17:16:37;;;;;;;105.80;61.92;;;;;;;;;;10002391;28;20495;-61
2023/02/22 17:21:31;;;;;;;103.43;64.57;;;;;;;;;;10023720;28;20059;-61
2023/02/22 17:26:27;;;;;;;108.30;66.63;;;;;;;;;;10013785;28;20050;-62
2023/02/22 17:31:22;;;;;;;107.97;65.70;;;;;;;;;;10002266;28;20503;-62
2023/02/22 17:36:15;;;;;;;98.30;62.83;;;;;;;;;;10007064;28;20077;-63
2023/02/22 17:41:10;;;;;;;98.22;61.70;;;;;;;;;;10008680;28;20481;-62
2023/02/22 17:46:08;;;;;;;100.63;63.22;;;;;;;;;;10007552;28;20398;-62
2023/02/22 17:51:08;;;;;;;103.75;64.05;;;;;;;;;;10031953;28;20062;-64
2023/02/22 17:56:12;;;;;;;102.07;67.55;;;;;;;;;;10027863;28;20051;-63
2023/02/22 18:01:05;;;;;;;105.13;66.80;;;;;;;;;;10025553;28;20052;-63
2023/02/22 18:05:59;;;;;;;101.95;66.05;;;;;;;;;;10009439;28;20511;-62
2023/02/22 18:10:55;;;;;;;121.00;80.28;;;;;;;;;;10015913;28;20506;-62
2023/02/22 18:15:50;;;;;;;118.05;78.47;;;;;;;;;;10017972;28;20133;-63
2023/02/22 18:20:50;;;;;;;106.07;67.43;;;;;;;;;;10025859;28;20042;-62
2023/02/22 18:25:47;;;;;;;;;;;;;;;;;;10031669;28;20530;-60
2023/02/22 18:31:08;;;;;;;108.00;63.30;;;;;;;;;;10020573;28;19921;-62
2023/02/22 18:36:13;;;;;;;105.28;63.85;;;;;;;;;;10030814;28;20410;-62
2023/02/22 18:41:09;;;;;;;96.35;61.55;;;;;;;;;;10031121;28;20112;-61
2023/02/22 18:46:06;;;;;;;97.13;62.88;;;;;;;;;;10031177;28;20050;-61
2023/02/22 18:51:00;;;;;;;98.05;62.63;;;;;;;;;;10024669;28;20045;-60
2023/02/22 18:55:55;;;;;;;99.97;63.78;;;;;;;;;;10012203;28;20122;-61
2023/02/22 19:00:49;;;;;;;107.80;66.38;;;;;;;;;;10010487;28;20388;-62
2023/02/22 19:05:43;;;;;;;102.55;62.35;;;;;;;;;;10007126;28;20491;-61
2023/02/22 19:10:38;;;;;;;102.40;65.85;;;;;;;;;;10018213;28;20065;-61
2023/02/22 19:15:30;;;;;;;95.50;63.08;;;;;;;;;;10002653;28;20049;-62
2023/02/22 19:20:24;;;;;;;103.38;68.00;;;;;;;;;;10009928;28;20544;-61
2023/02/22 19:25:18;;;;;;;107.13;68.25;;;;;;;;;;10003327;28;20154;-61
2023/02/22 19:30:12;;;;;;;119.25;67.13;;;;;;;;;;10008824;28;20038;-61
2023/02/22 19:35:06;;;;;;;109.32;68.25;;;;;;;;;;10006438;28;20403;-61
2023/02/22 19:40:05;;;;;;;100.95;67.10;;;;;;;;;;10011484;28;20164;-60
2023/02/22 19:44:58;;;;;;;105.13;67.25;;;;;;;;;;10011074;28;20081;-61
2023/02/22 19:49:52;;;;;;;102.97;63.92;;;;;;;;;;10010250;28;20410;-61
2023/02/22 19:54:48;;;;;;;107.85;65.68;;;;;;;;;;10005448;28;20148;-61
2023/02/22 19:59:42;;;;;;;102.78;62.75;;;;;;;;;;10005939;28;20049;-61
2023/02/22 20:04:36;;;;;;;103.80;66.75;;;;;;;;;;10003326;28;20066;-61
2023/02/22 20:09:36;;;;;;;104.15;64.90;;;;;;;;;;10011078;28;20046;-61
2023/02/22 20:14:45;;;;;;;109.72;68.50;;;;;;;;;;10020131;28;20399;-65
2023/02/22 20:19:39;;;;;;;113.22;66.43;;;;;;;;;;10019122;28;20100;-65
2023/02/22 20:24:33;;;;;;;107.72;68.25;;;;;;;;;;10007986;28;20042;-61
2023/02/22 20:29:30;;;;;;;110.60;70.57;;;;;;;;;;10013285;28;20046;-61
2023/02/22 20:34:25;;;;;;;108.38;64.95;;;;;;;;;;10007211;28;20050;-61
2023/02/22 20:39:19;;;;;;;106.05;68.57;;;;;;;;;;10005396;28;20062;-62
2023/02/22 20:44:14;;;;;;;105.93;64.88;;;;;;;;;;10008821;28;20484;-63
2023/02/22 20:49:10;;;;;;;97.88;68.40;;;;;;;;;;10001916;28;20069;-63
2023/02/22 20:54:03;;;;;;;100.50;63.85;;;;;;;;;;10009527;28;20041;-63
2023/02/22 20:58:58;;;;;;;90.43;62.22;;;;;;;;;;10008847;28;20060;-63
2023/02/22 21:03:52;;;;;;;98.88;67.57;;;;;;;;;;10008354;28;20041;-63
2023/02/22 21:08:54;;;;;;;107.35;69.05;;;;;;;;;;10010040;28;20046;-63
2023/02/22 21:13:49;;;;;;;99.88;64.95;;;;;;;;;;10000414;28;20469;-62
2023/02/22 21:18:43;;;;;;;101.80;63.97;;;;;;;;;;10011101;28;20054;-63
2023/02/22 21:23:38;;;;;;;99.63;64.75;;;;;;;;;;10017664;28;20046;-63
2023/02/22 21:28:34;;;;;;;107.30;68.72;;;;;;;;;;10003721;28;20639;-63
2023/02/22 21:33:44;;;;;;;105.28;66.03;;;;;;;;;;10008456;28;20052;-63
2023/02/22 21:38:37;;;;;;;106.55;64.72;;;;;;;;;;10012115;28;20133;-62
2023/02/22 21:43:31;;;;;;;100.65;65.40;;;;;;;;;;10018504;28;20053;-62
2023/02/22 21:48:25;;;;;;;100.45;64.90;;;;;;;;;;10016960;28;20114;-61
2023/02/22 21:53:21;;;;;;;109.53;68.82;;;;;;;;;;10019904;28;20058;-60
2023/02/22 21:58:14;;;;;;;94.90;61.63;;;;;;;;;;10024553;28;20477;-60
2023/02/22 22:03:19;;;;;;;107.47;68.20;;;;;;;;;;10017145;28;20060;-60
2023/02/22 22:08:18;;;;;;;101.20;65.70;;;;;;;;;;10010283;28;20136;-60
2023/02/22 22:13:11;;;;;;;;;;;;;;;;;;10010939;28;20057;-60
2023/02/22 22:18:06;;;;;;;109.25;66.68;;;;;;;;;;10012239;28;19929;-61
2023/02/22 22:22:59;;;;;;;105.63;65.75;;;;;;;;;;10017499;28;20426;-61
2023/02/22 22:27:55;;;;;;;105.72;66.50;;;;;;;;;;10017596;28;20050;-61
2023/02/22 22:32:48;;;;;;;104.55;66.95;;;;;;;;;;10019863;28;20056;-61
2023/02/22 22:37:41;;;;;;;109.05;68.68;;;;;;;;;;10005383;28;20053;-61
2023/02/22 22:42:35;;;;;;;97.45;65.50;;;;;;;;;;10007413;28;20115;-61
2023/02/22 22:47:28;;;;;;;115.72;64.57;;;;;;;;;;10008863;28;20061;-62
2023/02/22 22:52:23;;;;;;;97.63;65.78;;;;;;;;;;10013377;28;20546;-61
2023/02/22 22:57:17;;;;;;;95.78;64.82;;;;;;;;;;10009853;28;20541;-61
2023/02/22 23:02:10;;;;;;;99.50;69.28;;;;;;;;;;10017023;28;20135;-61
2023/02/22 23:07:05;;;;;;;104.63;70.80;;;;;;;;;;10015944;28;20057;-61
2023/02/22 23:12:15;;;;;;;126.18;76.18;;;;;;;;;;10013939;28;20050;-61
2023/02/22 23:17:14;;;;;;;111.22;72.95;;;;;;;;;;10016723;28;20038;-61
2023/02/22 23:22:08;;;;;;;110.07;68.85;;;;;;;;;;10008114;28;20058;-60
2023/02/22 23:27:05;;;;;;;110.38;71.53;;;;;;;;;;10011882;28;20453;-61
2023/02/22 23:31:59;;;;;;;104.85;65.68;;;;;;;;;;10009545;28;20054;-61
2023/02/22 23:36:55;;;;;;;108.57;68.65;;;;;;;;;;10016677;28;20049;-61
2023/02/22 23:42:09;;;;;;;109.30;71.57;;;;;;;;;;10025887;28;20074;-60
2023/02/22 23:47:02;;;;;;;107.60;71.63;;;;;;;;;;10022588;28;20050;-60
2023/02/22 23:51:56;;;;;;;104.05;67.57;;;;;;;;;;10026772;28;20137;-60
2023/02/22 23:56:56;;;;;;;106.10;71.30;;;;;;;;;;10027372;28;20419;-61
